createdAt,value
2022-11-05T00:00:38.199Z,42.64
2022-11-05T00:05:58.605Z,42.51
2022-11-05T00:11:01.022Z,42.40
2022-11-05T00:16:21.393Z,42.95
2022-11-05T00:21:46.527Z,42.68
2022-11-05T00:26:49.866Z,43.26
2022-11-05T00:31:52.383Z,42.96
2022-11-05T00:36:56.809Z,43.25
2022-11-05T00:42:19.669Z,43.04
2022-11-05T00:47:43.600Z,43.18
2022-11-05T00:52:56.671Z,43.30
2022-11-05T00:58:12.928Z,43.56
2022-11-05T01:03:19.634Z,43.57
2022-11-05T01:08:25.366Z,43.31
2022-11-05T01:13:30.410Z,43.81
2022-11-05T01:18:34.752Z,43.87
2022-11-05T01:23:48.442Z,43.64
2022-11-05T01:28:52.487Z,43.92
2022-11-05T01:33:56.428Z,44.12
2022-11-05T01:39:02.040Z,44.36
2022-11-05T01:44:04.243Z,44.11
2022-11-05T01:49:16.698Z,44.46
2022-11-05T01:54:24.118Z,44.56
2022-11-05T01:59:36.717Z,44.45
2022-11-05T02:10:52.404Z,44.91
2022-11-05T02:16:18.716Z,45.03
2022-11-05T02:21:23.353Z,45.12
2022-11-05T02:26:35.021Z,44.98
2022-11-05T02:32:20.857Z,45.22
2022-11-05T02:37:48.930Z,45.31
2022-11-05T02:43:04.672Z,45.14
2022-11-05T02:48:37.179Z,45.68
2022-11-05T02:53:56.087Z,45.54
2022-11-05T02:58:58.355Z,45.63
2022-11-05T03:04:02.189Z,45.57
2022-11-05T03:09:30.867Z,45.62
2022-11-05T03:15:03.450Z,45.56
2022-11-05T03:20:25.856Z,45.25
2022-11-05T03:25:30.579Z,45.36
2022-11-05T03:30:35.697Z,45.52
2022-11-05T03:35:54.625Z,45.26
2022-11-05T03:41:01.648Z,45.19
2022-11-05T03:46:21.569Z,44.77
2022-11-05T03:51:42.673Z,44.67
2022-11-05T03:57:18.613Z,44.01
2022-11-05T04:02:30.646Z,44.44
2022-11-05T04:07:56.712Z,44.32
2022-11-05T04:13:20.478Z,43.81
2022-11-05T04:18:25.822Z,43.77
2022-11-05T04:23:49.674Z,43.96
2022-11-05T04:29:11.699Z,43.86
2022-11-05T04:34:22.268Z,44.19
2022-11-05T04:39:28.110Z,44.30
2022-11-05T04:44:44.159Z,44.25
2022-11-05T04:49:48.031Z,44.25
2022-11-05T04:54:49.940Z,44.48
2022-11-05T04:59:53.946Z,44.65
2022-11-05T05:04:58.391Z,44.89
2022-11-05T05:10:01.930Z,44.76
2022-11-05T05:15:07.053Z,45.22
2022-11-05T05:20:35.001Z,45.23
2022-11-05T05:25:41.906Z,45.45
2022-11-05T05:30:53.597Z,45.79
2022-11-05T05:36:11.508Z,47.72
2022-11-05T05:41:14.245Z,46.10
2022-11-05T05:46:25.882Z,46.08
2022-11-05T05:51:30.290Z,46.05
2022-11-05T06:01:53.021Z,46.48
2022-11-05T06:06:55.988Z,46.43
2022-11-05T06:12:04.333Z,46.61
2022-11-05T06:17:11.040Z,46.79
2022-11-05T06:22:18.724Z,46.84
2022-11-05T06:27:34.883Z,46.67
2022-11-05T06:32:40.129Z,47.28
2022-11-05T06:37:45.603Z,47.19
2022-11-05T06:42:54.140Z,47.77
2022-11-05T06:48:00.894Z,48.10
2022-11-05T06:53:05.522Z,47.90
2022-11-05T06:58:10.052Z,48.11
2022-11-05T07:03:13.939Z,48.15
2022-11-05T07:08:19.739Z,48.10
2022-11-05T07:13:27.679Z,48.38
2022-11-05T07:18:32.393Z,48.11
2022-11-05T07:23:37.090Z,47.96
2022-11-05T07:28:41.330Z,47.71
2022-11-05T07:33:43.260Z,47.55
2022-11-05T07:38:48.998Z,47.01
2022-11-05T07:43:59.714Z,46.37
2022-11-05T07:49:09.699Z,44.07
2022-11-05T07:54:14.198Z,41.90
2022-11-05T07:59:19.022Z,40.99
2022-11-05T08:04:21.632Z,40.72
2022-11-05T08:09:32.579Z,40.19
2022-11-05T08:14:40.608Z,39.78
2022-11-05T08:19:45.758Z,39.38
2022-11-05T08:24:49.467Z,39.44
2022-11-05T08:29:53.131Z,39.65
2022-11-05T08:34:55.730Z,39.82
2022-11-05T08:40:02.000Z,39.58
2022-11-05T08:45:09.608Z,38.62
2022-11-05T08:50:12.839Z,39.22
2022-11-05T08:55:19.435Z,39.17
2022-11-05T09:00:28.218Z,37.84
2022-11-05T09:05:37.991Z,38.65
2022-11-05T09:10:42.099Z,38.30
2022-11-05T09:15:52.261Z,37.60
2022-11-05T09:21:01.131Z,36.58
2022-11-05T09:26:03.338Z,36.22
2022-11-05T09:31:17.784Z,34.71
2022-11-05T09:36:22.553Z,35.48
2022-11-05T09:41:57.841Z,32.96
2022-11-05T09:52:49.766Z,33.41
2022-11-05T10:03:35.272Z,33.25
2022-11-05T10:08:44.147Z,32.56
2022-11-05T10:13:50.761Z,32.54
2022-11-05T10:19:04.870Z,30.57
2022-11-05T10:24:20.360Z,30.29
2022-11-05T10:29:34.617Z,28.73
2022-11-05T10:34:45.025Z,28.92
2022-11-05T10:39:49.160Z,30.71
2022-11-05T10:45:29.642Z,28.31
2022-11-05T10:50:40.574Z,29.11
2022-11-05T10:55:49.120Z,28.37
2022-11-05T11:01:08.661Z,27.43
2022-11-05T11:06:32.606Z,25.22
2022-11-05T11:11:43.865Z,26.09
2022-11-05T11:16:50.830Z,26.49
2022-11-05T11:22:11.523Z,23.83
2022-11-05T11:27:39.593Z,23.89
2022-11-05T11:32:46.297Z,25.36
2022-11-05T11:37:57.032Z,24.80
2022-11-05T11:43:30.822Z,25.22
2022-11-05T11:48:36.197Z,25.99
2022-11-05T11:53:52.430Z,25.75
2022-11-05T11:58:57.857Z,26.67
2022-11-05T12:04:21.822Z,27.38
2022-11-05T12:10:00.260Z,24.98
2022-11-05T12:15:40.660Z,25.52
2022-11-05T12:21:15.409Z,25.17
2022-11-05T12:26:45.471Z,28.25
2022-11-05T12:32:03.850Z,29.11
2022-11-05T12:37:34.856Z,29.20
2022-11-05T12:43:11.452Z,30.10
2022-11-05T12:48:41.200Z,32.19
2022-11-05T12:54:08.147Z,32.46
2022-11-05T12:59:45.348Z,33.43
2022-11-05T13:05:01.161Z,33.39
2022-11-05T13:10:16.471Z,33.85
2022-11-05T13:15:29.636Z,33.03
2022-11-05T13:20:34.428Z,33.56
2022-11-05T13:25:50.321Z,32.93
2022-11-05T13:31:10.084Z,33.62
2022-11-05T13:36:48.385Z,33.51
2022-11-05T13:42:28.695Z,33.67
2022-11-05T13:48:23.067Z,34.98
2022-11-05T13:53:58.323Z,36.99
2022-11-05T13:59:31.671Z,36.07
2022-11-05T14:05:10.255Z,37.88
2022-11-05T14:10:40.471Z,37.93
2022-11-05T14:16:20.478Z,39.20
2022-11-05T14:21:29.662Z,39.94
2022-11-05T14:26:34.399Z,39.23
2022-11-05T14:32:11.535Z,39.70
2022-11-05T14:37:13.599Z,39.96
2022-11-05T14:42:31.730Z,41.80
2022-11-05T14:47:53.654Z,41.29
2022-11-05T14:53:09.169Z,41.05
2022-11-05T14:58:40.644Z,42.23
2022-11-05T15:04:19.790Z,42.83
2022-11-05T15:09:36.381Z,43.79
2022-11-05T15:15:03.644Z,44.38
2022-11-05T15:20:21.810Z,44.95
2022-11-05T15:25:54.317Z,45.09
2022-11-05T15:31:16.140Z,45.03
2022-11-05T15:36:35.142Z,44.10
2022-11-05T15:41:39.812Z,43.21
2022-11-05T15:46:43.520Z,43.33
2022-11-05T15:51:50.184Z,45.13
2022-11-05T15:56:57.034Z,45.99
2022-11-05T16:02:29.409Z,46.87
2022-11-05T16:07:36.365Z,46.85
2022-11-05T16:12:40.688Z,46.89
2022-11-05T16:17:49.581Z,47.03
2022-11-05T16:22:59.397Z,47.43
2022-11-05T16:28:07.646Z,48.17
2022-11-05T16:33:19.728Z,48.36
2022-11-05T16:38:26.446Z,47.92
2022-11-05T16:48:48.400Z,48.23
2022-11-05T16:54:16.829Z,48.61
2022-11-05T16:59:23.248Z,48.36
2022-11-05T17:04:26.811Z,48.57
2022-11-05T17:09:45.519Z,48.77
2022-11-05T17:14:49.305Z,48.74
2022-11-05T17:19:51.183Z,48.57
2022-11-05T17:25:00.654Z,49.31
2022-11-05T17:30:10.668Z,49.11
2022-11-05T17:35:14.409Z,49.50
2022-11-05T17:40:30.670Z,49.65
2022-11-05T17:45:41.174Z,49.81
2022-11-05T17:50:53.813Z,50.35
2022-11-05T17:56:03.145Z,50.38
2022-11-05T18:01:08.650Z,50.87
2022-11-05T18:06:13.971Z,51.17
2022-11-05T18:11:15.880Z,51.13
2022-11-05T18:16:21.049Z,52.89
2022-11-05T18:21:26.268Z,51.16
2022-11-05T18:26:32.142Z,51.65
2022-11-05T18:32:01.512Z,51.46
2022-11-05T18:37:08.412Z,51.42
2022-11-05T18:42:19.458Z,51.79
2022-11-05T18:47:27.559Z,52.45
2022-11-05T18:52:36.763Z,51.96
2022-11-05T18:57:45.018Z,52.22
2022-11-05T19:02:48.449Z,52.11
2022-11-05T19:07:51.021Z,52.14
2022-11-05T19:12:54.403Z,51.95
2022-11-05T19:17:56.605Z,52.00
2022-11-05T19:23:01.215Z,52.22
2022-11-05T19:28:13.077Z,52.13
2022-11-05T19:33:19.608Z,52.18
2022-11-05T19:38:27.600Z,52.21
2022-11-05T19:43:33.889Z,51.64
2022-11-05T19:48:39.702Z,51.89
2022-11-05T19:53:42.793Z,51.66
2022-11-05T19:59:07.231Z,50.85
2022-11-05T20:04:12.011Z,50.55
2022-11-05T20:09:22.879Z,49.82
2022-11-05T20:14:28.227Z,49.61
2022-11-05T20:19:31.019Z,49.61
2022-11-05T20:24:34.888Z,49.89
2022-11-05T20:29:49.661Z,50.82
2022-11-05T20:34:58.442Z,51.07
2022-11-05T20:40:04.702Z,50.97
2022-11-05T20:45:08.259Z,51.38
2022-11-05T20:50:15.721Z,51.45
2022-11-05T20:55:18.109Z,51.61
2022-11-05T21:00:27.105Z,51.66
2022-11-05T21:05:35.319Z,51.60
2022-11-05T21:10:50.135Z,52.28
2022-11-05T21:16:04.671Z,51.82
2022-11-05T21:21:14.675Z,52.30
2022-11-05T21:26:19.262Z,51.71
2022-11-05T21:31:35.761Z,51.32
2022-11-05T21:36:40.874Z,51.34
2022-11-05T21:41:42.857Z,51.31
2022-11-05T21:46:45.208Z,51.97
2022-11-05T21:52:08.180Z,51.41
2022-11-05T21:57:36.497Z,51.37
2022-11-05T22:02:44.611Z,52.02
2022-11-05T22:07:53.847Z,50.99
2022-11-05T22:12:57.156Z,51.24
2022-11-05T22:18:06.515Z,51.31
2022-11-05T22:23:11.561Z,50.82
2022-11-05T22:28:28.635Z,50.47
2022-11-05T22:33:33.803Z,50.04
2022-11-05T22:38:36.320Z,49.83
2022-11-05T22:43:41.412Z,50.09
2022-11-05T22:48:50.763Z,49.56
2022-11-05T22:54:06.938Z,49.79
2022-11-05T22:59:13.348Z,49.28
2022-11-05T23:04:15.984Z,49.07
2022-11-05T23:09:48.528Z,48.66
2022-11-05T23:15:03.267Z,48.50
2022-11-05T23:20:30.739Z,48.86
2022-11-05T23:25:35.214Z,48.50
2022-11-05T23:31:09.410Z,48.28
2022-11-05T23:36:33.709Z,48.51
2022-11-05T23:41:55.150Z,48.80
2022-11-05T23:47:17.142Z,48.82
2022-11-05T23:52:21.944Z,48.89
2022-11-05T23:57:28.931Z,48.90
